createdAt,value
2022-09-11T04:00:29.166Z,99.99
2022-09-11T04:05:29.093Z,99.99
2022-09-11T04:10:29.038Z,99.99
2022-09-11T04:15:36.043Z,99.99
2022-09-11T04:20:28.933Z,99.83
2022-09-11T04:25:28.986Z,99.99
2022-09-11T04:30:28.818Z,99.99
2022-09-11T04:35:28.781Z,99.83
2022-09-11T04:40:28.708Z,99.93
2022-09-11T04:45:28.711Z,99.93
2022-09-11T04:50:28.600Z,99.93
2022-09-11T04:55:28.551Z,99.99
2022-09-11T05:00:28.486Z,99.93
2022-09-11T05:05:28.442Z,99.93
2022-09-11T05:10:28.367Z,99.93
2022-09-11T05:15:28.337Z,99.93
2022-09-11T05:20:28.278Z,99.99
2022-09-11T05:25:28.197Z,99.99
2022-09-11T05:30:28.160Z,99.83
2022-09-11T05:35:32.104Z,99.73
2022-09-11T05:40:28.035Z,99.62
2022-09-11T05:45:28.030Z,99.52
2022-09-11T05:50:28.085Z,99.62
2022-09-11T05:55:27.886Z,99.12
2022-09-11T06:00:27.853Z,99.12
2022-09-11T06:05:27.770Z,99.32
2022-09-11T06:10:27.703Z,99.22
2022-09-11T06:15:45.563Z,99.02
2022-09-11T06:20:28.619Z,98.92
2022-09-11T06:25:27.537Z,98.61
2022-09-11T06:30:27.513Z,98.41
2022-09-11T06:35:27.461Z,98.41
2022-09-11T06:40:27.385Z,98.61
2022-09-11T06:45:27.328Z,98.01
2022-09-11T06:50:27.276Z,98.61
2022-09-11T06:55:27.236Z,98.51
2022-09-11T07:00:27.166Z,97.91
2022-09-11T07:05:27.108Z,97.91
2022-09-11T07:10:27.057Z,97.80
2022-09-11T07:15:27.018Z,98.01
2022-09-11T07:20:26.945Z,98.01
2022-09-11T07:25:26.894Z,98.11
2022-09-11T07:30:26.899Z,97.50
2022-09-11T07:35:26.803Z,97.00
2022-09-11T07:40:26.729Z,96.69
2022-09-11T07:45:26.683Z,96.80
2022-09-11T07:50:26.607Z,96.89
2022-09-11T07:55:26.586Z,97.00
2022-09-11T08:00:26.884Z,98.11
2022-09-11T08:05:26.446Z,98.11
2022-09-11T08:10:27.913Z,97.50
2022-09-11T08:15:26.373Z,97.10
2022-09-11T08:20:26.286Z,97.20
2022-09-11T08:25:26.243Z,97.00
2022-09-11T08:30:26.185Z,97.10
2022-09-11T08:35:26.150Z,98.01
2022-09-11T08:40:26.078Z,98.31
2022-09-11T08:45:26.119Z,98.41
2022-09-11T08:50:25.968Z,98.11
2022-09-11T08:55:25.938Z,97.50
2022-09-11T09:00:25.861Z,97.80
2022-09-11T09:05:25.809Z,97.50
2022-09-11T09:10:25.749Z,96.29
2022-09-11T09:15:29.334Z,96.69
2022-09-11T09:20:25.641Z,95.28
2022-09-11T09:25:25.592Z,95.28
2022-09-11T09:30:25.533Z,95.18
2022-09-11T09:35:25.502Z,95.07
2022-09-11T09:40:25.429Z,96.19
2022-09-11T09:45:25.377Z,96.39
2022-09-11T09:50:25.315Z,95.28
2022-09-11T09:55:25.285Z,95.18
2022-09-11T10:00:25.212Z,95.28
2022-09-11T10:05:25.286Z,95.78
2022-09-11T10:10:25.110Z,94.98
2022-09-11T10:15:32.203Z,93.66
2022-09-11T10:20:24.993Z,92.76
2022-09-11T10:25:24.935Z,91.64
2022-09-11T10:30:24.886Z,89.52
2022-09-11T10:35:24.864Z,89.42
2022-09-11T10:40:24.780Z,90.23
2022-09-11T10:45:24.728Z,89.83
2022-09-11T10:50:24.684Z,87.70
2022-09-11T10:55:24.638Z,86.29
2022-09-11T11:00:24.565Z,85.48
2022-09-11T11:05:24.540Z,86.69
2022-09-11T11:10:24.455Z,86.49
2022-09-11T11:15:29.480Z,88.10
2022-09-11T11:20:25.349Z,88.71
2022-09-11T11:25:24.293Z,86.08
2022-09-11T11:30:24.241Z,85.28
2022-09-11T11:35:24.206Z,85.78
2022-09-11T11:40:24.136Z,88.61
2022-09-11T11:45:24.076Z,90.83
2022-09-11T11:50:25.670Z,91.64
2022-09-11T11:55:23.992Z,92.76
2022-09-11T12:00:23.917Z,93.05
2022-09-11T12:05:23.869Z,91.74
2022-09-11T12:10:23.815Z,90.03
2022-09-11T12:15:23.783Z,88.41
2022-09-11T12:20:23.705Z,87.81
2022-09-11T12:25:23.648Z,87.10
2022-09-11T12:30:23.598Z,86.90
2022-09-11T12:35:23.643Z,86.79
2022-09-11T12:40:23.492Z,86.29
2022-09-11T12:45:23.437Z,85.88
2022-09-11T12:50:23.382Z,85.68
2022-09-11T12:55:23.350Z,85.68
2022-09-11T13:00:23.276Z,85.78
2022-09-11T13:05:23.228Z,85.99
2022-09-11T13:10:23.170Z,86.19
2022-09-11T13:15:23.147Z,85.78
2022-09-11T13:20:23.071Z,85.99
2022-09-11T13:25:23.008Z,86.69
2022-09-11T13:30:22.944Z,87.30
2022-09-11T13:35:22.921Z,87.50
2022-09-11T13:40:22.851Z,88.51
2022-09-11T13:45:22.823Z,87.81
2022-09-11T13:50:22.744Z,88.10
2022-09-11T13:55:22.707Z,89.42
2022-09-11T14:00:22.635Z,89.72
2022-09-11T14:05:22.595Z,89.83
2022-09-11T14:10:22.536Z,92.45
2022-09-11T14:15:22.507Z,90.83
2022-09-11T14:20:22.424Z,90.73
2022-09-11T14:25:22.367Z,90.63
2022-09-11T14:30:22.317Z,90.33
2022-09-11T14:35:22.285Z,89.72
2022-09-11T14:40:22.317Z,89.83
2022-09-11T14:45:22.157Z,89.83
2022-09-11T14:50:22.109Z,89.83
2022-09-11T14:55:22.073Z,90.73
2022-09-11T15:00:22.002Z,91.14
2022-09-11T15:05:21.949Z,91.03
2022-09-11T15:10:21.895Z,92.55
2022-09-11T15:15:21.859Z,94.37
2022-09-11T15:20:21.783Z,94.27
2022-09-11T15:25:21.734Z,94.47
2022-09-11T15:30:21.678Z,96.89
2022-09-11T15:35:21.644Z,96.29
2022-09-11T15:40:21.640Z,97.71
2022-09-11T15:45:21.518Z,97.40
2022-09-11T15:50:21.466Z,97.20
2022-09-11T15:55:21.439Z,98.11
2022-09-11T16:00:21.457Z,97.40
2022-09-11T16:05:21.390Z,97.20
2022-09-11T16:10:21.256Z,97.00
2022-09-11T16:15:21.242Z,96.80
2022-09-11T16:20:28.183Z,96.59
2022-09-11T16:25:21.098Z,97.10
2022-09-11T16:30:42.245Z,98.01
2022-09-11T16:35:22.073Z,97.80
2022-09-11T16:40:20.927Z,98.11
2022-09-11T16:45:20.886Z,98.41
2022-09-11T16:50:20.841Z,99.12
2022-09-11T16:55:20.788Z,99.12
2022-09-11T17:00:20.732Z,99.93
2022-09-11T17:05:20.674Z,99.83
2022-09-11T17:10:20.617Z,99.73
2022-09-11T17:15:20.581Z,99.99
2022-09-11T17:20:20.506Z,99.99
2022-09-11T17:25:20.456Z,99.99
2022-09-11T17:30:20.398Z,99.99
2022-09-11T17:35:20.360Z,99.99
2022-09-11T17:40:20.353Z,99.99
2022-09-11T17:45:20.236Z,99.99
2022-09-11T17:50:20.179Z,99.99
2022-09-11T17:55:20.146Z,99.99
2022-09-11T18:00:20.074Z,99.99
2022-09-11T18:05:20.023Z,99.99
2022-09-11T18:10:19.965Z,99.99
2022-09-11T18:15:19.926Z,99.99
2022-09-11T18:20:19.863Z,99.99
2022-09-11T18:25:19.789Z,99.99
2022-09-11T18:30:19.940Z,99.99
2022-09-11T18:35:19.716Z,99.99
2022-09-11T18:40:19.657Z,99.99
2022-09-11T18:45:19.587Z,99.99
2022-09-11T18:50:19.529Z,99.99
2022-09-11T18:55:19.484Z,99.99
2022-09-11T19:00:19.422Z,99.99
2022-09-11T19:05:19.378Z,99.99
2022-09-11T19:10:19.299Z,99.99
2022-09-11T19:15:19.283Z,99.99
2022-09-11T19:20:19.205Z,99.99
2022-09-11T19:25:19.156Z,99.99
2022-09-11T19:30:19.083Z,99.99
2022-09-11T19:35:19.063Z,99.99
2022-09-11T19:40:19.031Z,99.99
2022-09-11T19:45:18.920Z,99.99
2022-09-11T19:50:18.876Z,99.99
2022-09-11T19:55:18.849Z,99.99
2022-09-11T20:00:18.762Z,99.99
2022-09-11T20:05:18.717Z,99.99
2022-09-11T20:10:18.706Z,99.83
2022-09-11T20:15:18.624Z,99.99
2022-09-11T20:20:18.543Z,99.99
2022-09-11T20:25:18.492Z,99.99
2022-09-11T20:30:18.432Z,99.83
2022-09-11T20:35:18.405Z,99.99
2022-09-11T20:40:18.402Z,99.52
2022-09-11T20:45:18.273Z,99.73
2022-09-11T20:50:18.221Z,99.83
2022-09-11T20:55:18.183Z,99.73
2022-09-11T21:00:18.192Z,99.99
2022-09-11T21:05:18.053Z,99.99
2022-09-11T21:10:17.999Z,99.99
2022-09-11T21:15:17.949Z,99.99
2022-09-11T21:20:17.883Z,99.93
2022-09-11T21:25:17.832Z,99.99
2022-09-11T21:30:17.788Z,99.99
2022-09-11T21:35:17.737Z,99.83
2022-09-11T21:40:17.666Z,99.93
2022-09-11T21:45:17.608Z,99.83
2022-09-11T21:50:17.551Z,99.93
2022-09-11T21:55:17.522Z,99.73
2022-09-11T22:00:17.446Z,99.83
2022-09-11T22:05:17.610Z,99.83
2022-09-11T22:10:17.339Z,99.62
2022-09-11T22:15:17.301Z,99.62
2022-09-11T22:20:24.468Z,99.32
2022-09-11T22:25:17.170Z,99.93
2022-09-11T22:30:17.121Z,99.83
2022-09-11T22:35:17.080Z,99.73
2022-09-11T22:40:17.021Z,99.93
2022-09-11T22:45:16.944Z,99.93
2022-09-11T22:50:16.901Z,99.99
2022-09-11T22:55:16.868Z,99.62
2022-09-11T23:00:16.796Z,99.93
2022-09-11T23:05:16.737Z,99.83
2022-09-11T23:10:16.789Z,99.62
2022-09-11T23:15:16.648Z,99.83
2022-09-11T23:20:16.573Z,99.99
2022-09-11T23:25:16.522Z,99.73
